Half Day, Illinois
Current Conditions -  °F | °C
As of 12:52 AM on Saturday 25 Oct 2014 (Local Time) from KPWK Reporting Station
Overcast Overcast  
Wind Chill: 61°   Ceiling: 4700
Heat Index: 61°   Visibility: 10mi
Dew Point: 49°   Wind: 7mph
Humidity: 64%   Direction: 220°SW
Pressure: 29.92"   Gusts: NA
Location:  42.1941°N, 87.9317°W
Report Text: KPWK 250552Z AUTO 22006KT 10SM SCT024 OVC047 16/09 A2992 RMK AO2 SLP129 60000 T01610094 10172 20133 402060094 58014
Loading
Personal Weather Stations






























Interactive Weather Map
Tropical Storm Tracking
New forecast layout! Learn more

10-Day Weather Forecast

Advertisements
Track Severe Weather on mobile